createdAt,value
2022-12-23T02:39:40.432Z,15.48
2022-12-23T02:42:21.070Z,15.65
2022-12-23T02:45:01.213Z,12.85
2022-12-23T02:47:45.351Z,14.68
2022-12-23T02:50:17.918Z,13.25
2022-12-23T02:52:47.522Z,14.50
2022-12-23T02:55:22.834Z,16.02
2022-12-23T02:57:52.020Z,12.63
2022-12-23T03:00:20.176Z,13.18
2022-12-23T03:02:48.187Z,13.13
2022-12-23T03:05:25.528Z,12.10
2022-12-23T03:07:59.742Z,12.88
2022-12-23T03:10:46.301Z,11.30
2022-12-23T03:13:35.182Z,11.52
2022-12-23T03:16:18.295Z,11.65
2022-12-23T03:19:24.316Z,12.80
2022-12-23T03:22:22.010Z,12.43
2022-12-23T03:25:02.948Z,12.63
2022-12-23T03:27:36.483Z,11.63
2022-12-23T03:30:07.762Z,11.02
2022-12-23T03:33:05.934Z,12.98
2022-12-23T03:36:13.337Z,13.00
2022-12-23T03:38:42.099Z,11.23
2022-12-23T03:41:21.738Z,10.25
2022-12-23T03:44:02.324Z,13.18
2022-12-23T03:46:39.228Z,11.30
2022-12-23T03:49:15.436Z,10.30
2022-12-23T03:52:06.384Z,11.55
2022-12-23T03:54:44.427Z,16.02
2022-12-23T03:57:13.016Z,16.25
2022-12-23T03:59:46.209Z,18.40
2022-12-23T04:02:26.136Z,15.90
2022-12-23T04:05:20.132Z,15.40
2022-12-23T04:08:09.653Z,13.88
2022-12-23T04:10:37.977Z,14.20
2022-12-23T04:13:06.004Z,15.38
2022-12-23T04:15:34.239Z,14.65
2022-12-23T04:18:02.394Z,13.82
2022-12-23T04:20:30.882Z,14.32
2022-12-23T04:22:58.506Z,16.25
2022-12-23T04:25:26.208Z,13.82
2022-12-23T04:27:54.234Z,13.20
2022-12-23T04:30:22.114Z,15.20
2022-12-23T04:32:49.940Z,15.13
2022-12-23T04:35:17.674Z,13.60
2022-12-23T04:37:45.423Z,13.70
2022-12-23T04:40:13.396Z,14.68
2022-12-23T04:42:42.201Z,15.05
2022-12-23T04:45:10.221Z,14.75
2022-12-23T04:47:37.978Z,15.38
2022-12-23T04:50:06.312Z,14.25
2022-12-23T04:52:34.215Z,14.57
2022-12-23T04:55:01.875Z,14.45
2022-12-23T04:57:30.288Z,13.88
2022-12-23T04:59:57.919Z,15.27
2022-12-23T05:02:25.687Z,14.63
2022-12-23T05:04:53.628Z,13.88
2022-12-23T05:07:21.266Z,14.80
2022-12-23T05:09:48.927Z,13.55
2022-12-23T05:12:17.275Z,15.25
2022-12-23T05:14:44.997Z,13.02
2022-12-23T05:17:12.755Z,13.80
2022-12-23T05:19:40.408Z,15.25
2022-12-23T05:22:08.155Z,14.10
2022-12-23T05:24:35.954Z,14.13
2022-12-23T05:27:03.693Z,13.35
2022-12-23T05:29:31.575Z,13.60
2022-12-23T05:31:59.300Z,16.02
2022-12-23T05:34:27.118Z,13.02
2022-12-23T05:36:54.753Z,12.60
2022-12-23T05:39:22.489Z,12.20
2022-12-23T05:41:50.195Z,12.88
2022-12-23T05:44:17.927Z,14.88
2022-12-23T05:46:45.602Z,13.75
2022-12-23T05:49:13.995Z,13.68
2022-12-23T05:51:41.633Z,13.48
2022-12-23T05:54:09.442Z,14.10
2022-12-23T05:56:37.191Z,14.50
2022-12-23T05:59:05.067Z,12.45
2022-12-23T06:01:32.742Z,12.38
2022-12-23T06:04:00.802Z,12.35
2022-12-23T06:06:29.014Z,13.25
2022-12-23T06:08:59.792Z,13.25
2022-12-23T06:11:28.574Z,13.33
2022-12-23T06:13:56.325Z,13.15
2022-12-23T06:16:24.003Z,14.50
2022-12-23T06:18:56.149Z,13.20
2022-12-23T06:21:25.679Z,14.57
2022-12-23T06:23:53.384Z,13.57
2022-12-23T06:26:21.047Z,14.32
2022-12-23T06:28:48.731Z,14.35
2022-12-23T06:31:16.903Z,14.25
2022-12-23T06:33:44.691Z,15.07
2022-12-23T06:36:12.553Z,15.75
2022-12-23T06:38:40.181Z,14.20
2022-12-23T06:41:08.145Z,14.43
2022-12-23T06:43:35.946Z,15.55
2022-12-23T06:46:03.969Z,13.77
2022-12-23T06:48:31.657Z,13.02
2022-12-23T06:50:59.495Z,14.07
2022-12-23T06:53:27.118Z,14.77
2022-12-23T06:56:02.288Z,16.35
2022-12-23T06:58:30.211Z,15.50
2022-12-23T07:00:58.004Z,15.13
2022-12-23T07:03:25.917Z,14.98
2022-12-23T07:05:54.510Z,15.13
2022-12-23T07:08:22.485Z,15.05
2022-12-23T07:10:50.108Z,14.48
2022-12-23T07:13:18.989Z,16.42
2022-12-23T07:15:46.647Z,16.23
2022-12-23T07:18:15.394Z,16.05
2022-12-23T07:20:43.130Z,17.10
2022-12-23T07:23:10.757Z,16.48
2022-12-23T07:25:38.514Z,17.33
2022-12-23T07:28:06.175Z,15.98
2022-12-23T07:30:34.151Z,16.70
2022-12-23T07:33:01.950Z,17.27
2022-12-23T07:35:29.820Z,17.90
2022-12-23T07:37:57.470Z,15.60
2022-12-23T07:40:25.469Z,16.73
2022-12-23T07:42:58.358Z,15.25
2022-12-23T07:45:27.569Z,18.15
2022-12-23T07:47:56.169Z,15.20
2022-12-23T07:50:24.299Z,17.65
2022-12-23T07:52:53.062Z,18.55
2022-12-23T07:55:20.940Z,16.55
2022-12-23T07:57:52.180Z,19.15
2022-12-23T08:00:21.075Z,19.05
2022-12-23T08:02:49.172Z,17.50
2022-12-23T08:05:17.162Z,18.40
2022-12-23T08:07:45.469Z,17.27
2022-12-23T08:10:13.238Z,18.20
2022-12-23T08:12:40.940Z,18.40
2022-12-23T08:15:09.453Z,19.70
2022-12-23T08:17:37.333Z,18.85
2022-12-23T08:20:05.418Z,20.35
2022-12-23T08:22:33.127Z,17.75
2022-12-23T08:25:00.789Z,18.00
2022-12-23T08:27:28.560Z,17.98
2022-12-23T08:29:56.131Z,17.25
2022-12-23T08:32:27.613Z,19.40
2022-12-23T08:34:59.264Z,18.58
2022-12-23T08:37:27.068Z,18.35
2022-12-23T08:39:54.697Z,17.48
2022-12-23T08:42:22.596Z,17.48
2022-12-23T08:44:50.289Z,17.73
2022-12-23T08:47:17.931Z,17.75
2022-12-23T08:49:45.543Z,17.70
2022-12-23T08:52:13.410Z,15.82
2022-12-23T08:54:41.017Z,17.75
2022-12-23T08:57:08.776Z,17.88
2022-12-23T08:59:36.441Z,18.10
2022-12-23T09:02:04.521Z,17.45
2022-12-23T09:04:32.337Z,15.75
2022-12-23T09:07:00.033Z,17.40
2022-12-23T09:09:27.755Z,17.38
2022-12-23T09:11:55.500Z,16.27
2022-12-23T09:14:23.119Z,16.88
2022-12-23T09:16:52.656Z,15.55
2022-12-23T09:19:20.677Z,14.30
2022-12-23T09:21:48.372Z,16.35
2022-12-23T09:24:16.143Z,15.05
2022-12-23T09:26:43.858Z,15.50
2022-12-23T09:29:11.521Z,14.50
2022-12-23T09:31:39.451Z,16.13
2022-12-23T09:34:07.284Z,14.40
2022-12-23T09:36:35.096Z,15.25
2022-12-23T09:39:02.826Z,13.13
2022-12-23T09:41:55.450Z,14.00
2022-12-23T09:44:44.838Z,14.98
2022-12-23T09:47:18.664Z,14.38
2022-12-23T09:49:57.119Z,14.73
2022-12-23T09:52:43.693Z,15.48
2022-12-23T09:55:12.382Z,14.35
2022-12-23T09:57:53.255Z,13.57
2022-12-23T10:00:22.116Z,14.73
2022-12-23T10:03:00.329Z,13.55
2022-12-23T10:06:02.121Z,15.38
2022-12-23T10:08:43.398Z,14.45
2022-12-23T10:11:27.291Z,13.02
2022-12-23T10:13:59.007Z,14.13
2022-12-23T10:16:30.707Z,12.02
2022-12-23T10:19:32.744Z,14.02
2022-12-23T10:22:02.983Z,12.90
2022-12-23T10:24:37.447Z,13.25
2022-12-23T10:27:18.801Z,13.55
2022-12-23T10:29:46.627Z,13.52
2022-12-23T10:32:17.471Z,13.73
2022-12-23T10:35:00.834Z,12.45
2022-12-23T10:37:49.253Z,12.15
2022-12-23T10:40:23.937Z,11.90
2022-12-23T10:43:22.936Z,13.40
2022-12-23T10:46:02.873Z,12.25
2022-12-23T10:48:55.378Z,12.63
2022-12-23T10:51:27.352Z,11.65
2022-12-23T10:54:23.265Z,12.68
2022-12-23T10:56:51.021Z,13.00
2022-12-23T10:59:25.105Z,12.15
2022-12-23T11:01:58.722Z,11.60
2022-12-23T11:04:35.370Z,11.98
2022-12-23T11:07:41.983Z,12.90
2022-12-23T11:09:59.495Z,11.30
2022-12-23T11:12:42.602Z,11.95
2022-12-23T11:15:40.618Z,11.98
2022-12-23T11:18:12.354Z,12.48
2022-12-23T11:20:42.393Z,11.93
2022-12-23T11:23:30.611Z,10.88
2022-12-23T11:26:11.619Z,11.75
2022-12-23T11:28:50.870Z,10.40
2022-12-23T11:31:28.312Z,10.90
2022-12-23T11:33:57.328Z,10.90
2022-12-23T11:36:27.957Z,11.25
2022-12-23T11:39:04.839Z,11.82
2022-12-23T11:41:38.778Z,11.27
2022-12-23T11:44:33.722Z,10.80
2022-12-23T11:47:39.134Z,10.40
2022-12-23T11:50:40.560Z,13.07
2022-12-23T11:53:23.812Z,12.45
2022-12-23T11:56:09.906Z,10.77
2022-12-23T11:58:46.914Z,10.63
2022-12-23T12:01:20.491Z,11.40
2022-12-23T12:03:51.669Z,11.68
2022-12-23T12:06:19.891Z,10.75
2022-12-23T12:08:51.772Z,10.00
2022-12-23T12:11:33.523Z,10.60
2022-12-23T12:14:03.897Z,9.05
2022-12-23T12:16:31.989Z,10.82
2022-12-23T12:19:16.834Z,10.30
2022-12-23T12:21:45.045Z,10.27
2022-12-23T12:24:21.960Z,10.10
2022-12-23T12:26:52.771Z,10.98
2022-12-23T12:29:40.634Z,11.27
2022-12-23T12:32:40.976Z,9.82
2022-12-23T12:35:15.633Z,9.50
2022-12-23T12:37:58.000Z,10.80
2022-12-23T12:43:25.781Z,9.63
2022-12-23T12:46:02.716Z,10.70
2022-12-23T12:48:49.657Z,9.98
2022-12-23T12:51:32.208Z,11.70
2022-12-23T12:54:10.668Z,9.88
2022-12-23T12:56:48.460Z,10.93
2022-12-23T12:59:18.775Z,9.68
2022-12-23T13:02:08.599Z,10.25
2022-12-23T13:05:04.262Z,10.15
2022-12-23T13:07:41.536Z,10.82
2022-12-23T13:10:27.801Z,10.45
2022-12-23T13:13:04.584Z,9.75
2022-12-23T13:15:37.358Z,10.55
2022-12-23T13:18:16.579Z,10.13
2022-12-23T13:21:03.438Z,10.07
2022-12-23T13:23:44.425Z,10.43
2022-12-23T13:26:51.218Z,9.85
2022-12-23T13:29:22.101Z,10.13
2022-12-23T13:32:04.339Z,9.05
2022-12-23T13:34:59.988Z,9.82
2022-12-23T13:37:43.376Z,8.93
2022-12-23T13:40:29.565Z,8.90
2022-12-23T13:43:00.599Z,11.40
2022-12-23T13:45:40.445Z,8.95
2022-12-23T13:48:14.718Z,9.50
2022-12-23T13:50:51.251Z,9.73
2022-12-23T13:53:30.713Z,10.55
2022-12-23T13:56:36.921Z,9.07
2022-12-23T13:59:09.677Z,8.63
2022-12-23T14:01:40.380Z,9.27
2022-12-23T14:04:32.260Z,9.25
2022-12-23T14:07:19.722Z,10.35
2022-12-23T14:09:56.178Z,8.65
2022-12-23T14:12:31.624Z,8.98
2022-12-23T14:15:06.226Z,9.55
2022-12-23T14:18:02.440Z,9.98
2022-12-23T14:20:31.975Z,9.88
2022-12-23T14:23:21.954Z,9.27
2022-12-23T14:26:04.111Z,9.48
2022-12-23T14:28:45.002Z,9.50
2022-12-23T14:31:32.601Z,8.43
2022-12-23T14:34:33.053Z,9.05
2022-12-23T14:37:24.276Z,9.35
2022-12-23T14:39:52.877Z,8.70
2022-12-23T14:42:41.173Z,11.05
2022-12-23T14:45:29.494Z,9.45
2022-12-23T14:47:57.168Z,9.70
2022-12-23T14:50:37.283Z,8.93
2022-12-23T14:53:26.159Z,8.75
2022-12-23T14:56:11.033Z,9.13
2022-12-23T14:59:03.498Z,9.80
2022-12-23T15:01:47.142Z,8.20
2022-12-23T15:04:24.482Z,9.00
2022-12-23T15:06:59.417Z,9.48
2022-12-23T15:09:30.983Z,9.50
2022-12-23T15:12:00.496Z,8.77
2022-12-23T15:14:34.904Z,9.90
2022-12-23T15:17:15.987Z,9.35
2022-12-23T15:19:48.259Z,10.02
2022-12-23T15:22:22.692Z,9.52
2022-12-23T15:24:51.836Z,9.95
2022-12-23T15:27:29.433Z,11.02
2022-12-23T15:29:57.934Z,10.27
2022-12-23T15:32:26.546Z,9.88
2022-12-23T15:35:05.324Z,10.32
2022-12-23T15:37:33.870Z,10.02
2022-12-23T15:40:13.162Z,11.38
2022-12-23T15:42:47.670Z,11.55
2022-12-23T15:45:29.734Z,11.23
2022-12-23T15:47:57.588Z,12.43
2022-12-23T15:50:25.456Z,12.73
2022-12-23T15:52:54.787Z,11.60
2022-12-23T15:55:31.980Z,11.48
2022-12-23T15:58:00.648Z,12.80
2022-12-23T16:00:40.138Z,11.52
2022-12-23T16:03:27.352Z,12.10
2022-12-23T16:05:55.169Z,13.68
2022-12-23T16:08:29.838Z,14.10
2022-12-23T16:11:20.208Z,12.88
2022-12-23T16:14:00.375Z,13.40
2022-12-23T16:16:39.418Z,12.63
2022-12-23T16:19:45.015Z,13.43
2022-12-23T16:22:34.167Z,14.13
2022-12-23T16:25:15.445Z,13.52
2022-12-23T16:27:46.864Z,14.35
2022-12-23T16:30:20.282Z,13.70
2022-12-23T16:32:51.239Z,12.98
2022-12-23T16:35:41.929Z,15.40
2022-12-23T16:38:22.354Z,15.00
2022-12-23T16:40:54.988Z,14.73
2022-12-23T16:43:24.463Z,15.48
2022-12-23T16:45:54.948Z,15.27
2022-12-23T16:48:31.613Z,14.05
2022-12-23T16:51:00.701Z,15.35
2022-12-23T16:53:28.425Z,14.05
2022-12-23T16:56:00.595Z,15.45
2022-12-23T16:58:29.752Z,15.70
2022-12-23T17:00:58.223Z,15.68
2022-12-23T17:03:26.167Z,15.60
2022-12-23T17:05:53.818Z,14.65
2022-12-23T17:08:21.555Z,15.20
2022-12-23T17:10:49.364Z,16.77
2022-12-23T17:13:18.572Z,14.82
2022-12-23T17:15:46.267Z,15.38
2022-12-23T17:18:16.767Z,15.50
2022-12-23T17:20:48.653Z,13.52
2022-12-23T17:23:29.027Z,13.90
2022-12-23T17:25:57.302Z,14.05
2022-12-23T17:28:31.496Z,12.90
2022-12-23T17:30:59.420Z,14.38
2022-12-23T17:33:30.537Z,14.10
2022-12-23T17:35:59.119Z,13.93
2022-12-23T17:38:29.674Z,14.43
2022-12-23T17:41:00.766Z,15.90
2022-12-23T17:43:28.619Z,13.65
2022-12-23T17:45:56.539Z,15.02
2022-12-23T17:48:28.143Z,14.43
2022-12-23T17:50:59.477Z,15.52
2022-12-23T17:53:27.188Z,15.68
2022-12-23T17:55:54.943Z,14.55
2022-12-23T17:58:22.769Z,15.32
2022-12-23T18:00:50.568Z,14.85
2022-12-23T18:03:23.844Z,14.55
2022-12-23T18:05:57.400Z,15.65
2022-12-23T18:08:29.199Z,14.85
2022-12-23T18:10:57.569Z,24.17
2022-12-23T18:13:25.382Z,18.33
2022-12-23T18:15:53.254Z,21.55
2022-12-23T18:18:30.211Z,19.40
2022-12-23T18:23:32.676Z,16.38
2022-12-23T18:26:01.031Z,16.23
2022-12-23T18:28:29.229Z,19.40
2022-12-23T18:30:58.772Z,15.40
2022-12-23T18:33:28.987Z,15.90
2022-12-23T18:35:57.308Z,15.55
2022-12-23T18:38:25.776Z,16.08
2022-12-23T18:40:56.763Z,14.30
2022-12-23T18:43:25.784Z,14.63
2022-12-23T18:45:54.282Z,15.05
2022-12-23T18:48:23.512Z,12.70
2022-12-23T18:50:51.425Z,14.35
2022-12-23T18:53:25.403Z,14.88
2022-12-23T18:55:54.390Z,14.52
2022-12-23T18:58:22.679Z,16.52
2022-12-23T19:00:51.467Z,17.63
2022-12-23T19:03:30.803Z,16.50
2022-12-23T19:06:06.728Z,14.65
2022-12-23T19:08:36.006Z,13.90
2022-12-23T19:11:15.312Z,16.20
2022-12-23T19:13:43.204Z,14.65
2022-12-23T19:16:15.794Z,12.93
2022-12-23T19:18:44.237Z,13.25
2022-12-23T19:21:12.615Z,15.23
2022-12-23T19:23:41.689Z,14.45
2022-12-23T19:26:11.017Z,14.02
2022-12-23T19:28:39.428Z,14.00
2022-12-23T19:31:14.063Z,15.55
2022-12-23T19:33:43.956Z,14.43
